sensor_id;sensor_type;location;lat;lon;timestamp;P1;durP1;ratioP1;P2;durP2;ratioP2
1509;SDS011;746;48.688;9.428;2022-11-20T00:01:29;6.50;;;5.80;;
1509;SDS011;746;48.688;9.428;2022-11-20T00:03:50;7.10;;;6.33;;
1509;SDS011;746;48.688;9.428;2022-11-20T00:06:13;5.87;;;5.37;;
1509;SDS011;746;48.688;9.428;2022-11-20T00:08:34;5.90;;;5.40;;
1509;SDS011;746;48.688;9.428;2022-11-20T00:10:56;7.00;;;6.10;;
1509;SDS011;746;48.688;9.428;2022-11-20T00:13:18;6.90;;;6.20;;
1509;SDS011;746;48.688;9.428;2022-11-20T00:15:40;6.77;;;6.20;;
1509;SDS011;746;48.688;9.428;2022-11-20T00:18:01;7.80;;;6.50;;
1509;SDS011;746;48.688;9.428;2022-11-20T00:20:22;7.37;;;6.67;;
1509;SDS011;746;48.688;9.428;2022-11-20T00:22:44;7.80;;;7.07;;
1509;SDS011;746;48.688;9.428;2022-11-20T00:25:05;7.10;;;6.47;;
1509;SDS011;746;48.688;9.428;2022-11-20T00:27:26;7.10;;;6.40;;
1509;SDS011;746;48.688;9.428;2022-11-20T00:29:49;7.10;;;6.50;;
1509;SDS011;746;48.688;9.428;2022-11-20T00:32:10;6.90;;;6.20;;
1509;SDS011;746;48.688;9.428;2022-11-20T00:34:31;6.83;;;6.20;;
1509;SDS011;746;48.688;9.428;2022-11-20T00:36:53;7.37;;;6.67;;
1509;SDS011;746;48.688;9.428;2022-11-20T00:39:14;6.70;;;6.03;;
1509;SDS011;746;48.688;9.428;2022-11-20T00:41:35;7.17;;;6.47;;
1509;SDS011;746;48.688;9.428;2022-11-20T00:43:57;6.67;;;6.07;;
1509;SDS011;746;48.688;9.428;2022-11-20T00:46:20;6.67;;;5.80;;
1509;SDS011;746;48.688;9.428;2022-11-20T00:48:42;6.97;;;6.17;;
1509;SDS011;746;48.688;9.428;2022-11-20T00:51:03;6.73;;;6.03;;
1509;SDS011;746;48.688;9.428;2022-11-20T00:53:25;6.50;;;5.90;;
1509;SDS011;746;48.688;9.428;2022-11-20T00:55:52;7.10;;;6.30;;
1509;SDS011;746;48.688;9.428;2022-11-20T00:58:13;6.93;;;6.33;;
1509;SDS011;746;48.688;9.428;2022-11-20T01:00:34;6.50;;;5.90;;
1509;SDS011;746;48.688;9.428;2022-11-20T01:02:57;6.87;;;6.20;;
1509;SDS011;746;48.688;9.428;2022-11-20T01:05:18;6.53;;;6.03;;
1509;SDS011;746;48.688;9.428;2022-11-20T01:07:39;6.30;;;5.77;;
1509;SDS011;746;48.688;9.428;2022-11-20T01:10:01;7.80;;;6.07;;
1509;SDS011;746;48.688;9.428;2022-11-20T01:12:22;6.37;;;5.77;;
1509;SDS011;746;48.688;9.428;2022-11-20T01:14:43;5.60;;;5.10;;
1509;SDS011;746;48.688;9.428;2022-11-20T01:17:05;5.70;;;5.23;;
1509;SDS011;746;48.688;9.428;2022-11-20T01:19:27;5.87;;;5.37;;
1509;SDS011;746;48.688;9.428;2022-11-20T01:21:50;5.97;;;5.47;;
1509;SDS011;746;48.688;9.428;2022-11-20T01:24:12;6.10;;;5.50;;
1509;SDS011;746;48.688;9.428;2022-11-20T01:26:34;5.57;;;5.07;;
1509;SDS011;746;48.688;9.428;2022-11-20T01:28:56;5.63;;;5.13;;
1509;SDS011;746;48.688;9.428;2022-11-20T01:31:18;7.20;;;5.40;;
1509;SDS011;746;48.688;9.428;2022-11-20T01:33:40;5.90;;;5.40;;
1509;SDS011;746;48.688;9.428;2022-11-20T01:36:04;5.97;;;5.00;;
1509;SDS011;746;48.688;9.428;2022-11-20T01:38:26;5.83;;;5.30;;
1509;SDS011;746;48.688;9.428;2022-11-20T01:40:53;6.00;;;5.50;;
1509;SDS011;746;48.688;9.428;2022-11-20T01:43:16;5.57;;;5.17;;
1509;SDS011;746;48.688;9.428;2022-11-20T01:46:02;6.63;;;6.10;;
1509;SDS011;746;48.688;9.428;2022-11-20T01:48:25;6.13;;;5.57;;
1509;SDS011;746;48.688;9.428;2022-11-20T01:50:47;5.83;;;5.33;;
1509;SDS011;746;48.688;9.428;2022-11-20T01:53:10;6.43;;;5.80;;
1509;SDS011;746;48.688;9.428;2022-11-20T01:55:34;6.97;;;6.30;;
1509;SDS011;746;48.688;9.428;2022-11-20T01:57:57;8.17;;;7.37;;
1509;SDS011;746;48.688;9.428;2022-11-20T02:00:19;5.50;;;5.10;;
1509;SDS011;746;48.688;9.428;2022-11-20T02:02:40;5.67;;;5.17;;
1509;SDS011;746;48.688;9.428;2022-11-20T02:05:04;5.70;;;5.20;;
1509;SDS011;746;48.688;9.428;2022-11-20T02:07:29;5.20;;;4.80;;
1509;SDS011;746;48.688;9.428;2022-11-20T02:09:52;6.30;;;5.73;;
1509;SDS011;746;48.688;9.428;2022-11-20T02:12:17;5.10;;;4.70;;
1509;SDS011;746;48.688;9.428;2022-11-20T02:14:53;7.73;;;5.47;;
1509;SDS011;746;48.688;9.428;2022-11-20T02:17:14;6.53;;;5.93;;
1509;SDS011;746;48.688;9.428;2022-11-20T02:19:35;5.37;;;4.87;;
1509;SDS011;746;48.688;9.428;2022-11-20T02:21:59;6.20;;;5.70;;
1509;SDS011;746;48.688;9.428;2022-11-20T02:24:24;6.27;;;5.70;;
1509;SDS011;746;48.688;9.428;2022-11-20T02:26:47;6.33;;;5.63;;
1509;SDS011;746;48.688;9.428;2022-11-20T02:29:10;6.23;;;5.53;;
1509;SDS011;746;48.688;9.428;2022-11-20T02:31:38;5.80;;;5.30;;
1509;SDS011;746;48.688;9.428;2022-11-20T02:34:01;6.10;;;5.50;;
1509;SDS011;746;48.688;9.428;2022-11-20T02:36:22;7.00;;;6.03;;
1509;SDS011;746;48.688;9.428;2022-11-20T02:38:44;6.80;;;6.27;;
1509;SDS011;746;48.688;9.428;2022-11-20T02:41:07;5.63;;;5.13;;
1509;SDS011;746;48.688;9.428;2022-11-20T02:43:28;6.20;;;5.53;;
1509;SDS011;746;48.688;9.428;2022-11-20T02:45:50;6.67;;;5.83;;
1509;SDS011;746;48.688;9.428;2022-11-20T02:48:11;6.73;;;6.13;;
1509;SDS011;746;48.688;9.428;2022-11-20T02:50:32;6.27;;;5.67;;
1509;SDS011;746;48.688;9.428;2022-11-20T02:52:53;8.50;;;6.23;;
1509;SDS011;746;48.688;9.428;2022-11-20T02:55:15;6.10;;;5.60;;
1509;SDS011;746;48.688;9.428;2022-11-20T02:57:37;6.80;;;6.20;;
1509;SDS011;746;48.688;9.428;2022-11-20T02:59:59;6.43;;;5.83;;
1509;SDS011;746;48.688;9.428;2022-11-20T03:02:20;7.20;;;6.50;;
1509;SDS011;746;48.688;9.428;2022-11-20T03:04:41;9.57;;;6.63;;
1509;SDS011;746;48.688;9.428;2022-11-20T03:07:02;6.57;;;5.97;;
1509;SDS011;746;48.688;9.428;2022-11-20T03:09:23;6.47;;;5.97;;
1509;SDS011;746;48.688;9.428;2022-11-20T03:11:45;6.90;;;6.30;;
1509;SDS011;746;48.688;9.428;2022-11-20T03:14:07;7.03;;;6.33;;
1509;SDS011;746;48.688;9.428;2022-11-20T03:16:28;6.60;;;6.00;;
1509;SDS011;746;48.688;9.428;2022-11-20T03:18:51;6.60;;;6.00;;
1509;SDS011;746;48.688;9.428;2022-11-20T03:21:13;6.67;;;6.03;;
1509;SDS011;746;48.688;9.428;2022-11-20T03:23:34;6.87;;;6.13;;
1509;SDS011;746;48.688;9.428;2022-11-20T03:25:56;6.30;;;5.80;;
1509;SDS011;746;48.688;9.428;2022-11-20T03:28:17;6.43;;;5.83;;
1509;SDS011;746;48.688;9.428;2022-11-20T03:30:40;6.23;;;5.63;;
1509;SDS011;746;48.688;9.428;2022-11-20T03:33:01;6.73;;;6.13;;
1509;SDS011;746;48.688;9.428;2022-11-20T03:35:22;5.90;;;5.40;;
1509;SDS011;746;48.688;9.428;2022-11-20T03:37:44;5.77;;;5.33;;
1509;SDS011;746;48.688;9.428;2022-11-20T03:40:06;6.23;;;5.73;;
1509;SDS011;746;48.688;9.428;2022-11-20T03:42:27;6.23;;;5.73;;
1509;SDS011;746;48.688;9.428;2022-11-20T03:45:07;5.77;;;5.27;;
1509;SDS011;746;48.688;9.428;2022-11-20T03:47:29;5.80;;;5.20;;
1509;SDS011;746;48.688;9.428;2022-11-20T03:49:51;5.90;;;5.40;;
1509;SDS011;746;48.688;9.428;2022-11-20T03:52:12;6.23;;;5.67;;
1509;SDS011;746;48.688;9.428;2022-11-20T03:54:34;6.40;;;5.10;;
1509;SDS011;746;48.688;9.428;2022-11-20T03:56:55;5.40;;;4.90;;
1509;SDS011;746;48.688;9.428;2022-11-20T03:59:16;5.67;;;5.17;;
1509;SDS011;746;48.688;9.428;2022-11-20T04:01:38;5.60;;;5.10;;
1509;SDS011;746;48.688;9.428;2022-11-20T04:04:08;5.17;;;4.67;;
1509;SDS011;746;48.688;9.428;2022-11-20T04:06:30;5.40;;;4.90;;
1509;SDS011;746;48.688;9.428;2022-11-20T04:08:53;5.20;;;4.80;;
1509;SDS011;746;48.688;9.428;2022-11-20T04:11:15;5.70;;;5.23;;
1509;SDS011;746;48.688;9.428;2022-11-20T04:13:37;5.20;;;4.80;;
1509;SDS011;746;48.688;9.428;2022-11-20T04:15:58;5.00;;;4.60;;
1509;SDS011;746;48.688;9.428;2022-11-20T04:18:19;5.70;;;5.20;;
1509;SDS011;746;48.688;9.428;2022-11-20T04:20:42;5.53;;;5.00;;
1509;SDS011;746;48.688;9.428;2022-11-20T04:23:03;5.10;;;4.63;;
1509;SDS011;746;48.688;9.428;2022-11-20T04:25:24;5.13;;;4.60;;
1509;SDS011;746;48.688;9.428;2022-11-20T04:27:45;5.60;;;5.10;;
1509;SDS011;746;48.688;9.428;2022-11-20T04:30:07;4.77;;;4.30;;
1509;SDS011;746;48.688;9.428;2022-11-20T04:32:28;8.00;;;4.43;;
1509;SDS011;746;48.688;9.428;2022-11-20T04:34:50;4.83;;;4.43;;
1509;SDS011;746;48.688;9.428;2022-11-20T04:37:12;4.17;;;3.90;;
1509;SDS011;746;48.688;9.428;2022-11-20T04:39:33;4.10;;;3.80;;
1509;SDS011;746;48.688;9.428;2022-11-20T04:41:54;3.70;;;3.43;;
1509;SDS011;746;48.688;9.428;2022-11-20T04:44:29;4.90;;;4.23;;
1509;SDS011;746;48.688;9.428;2022-11-20T04:46:50;4.07;;;3.77;;
1509;SDS011;746;48.688;9.428;2022-11-20T04:49:12;4.00;;;3.70;;
1509;SDS011;746;48.688;9.428;2022-11-20T04:51:33;3.90;;;3.47;;
1509;SDS011;746;48.688;9.428;2022-11-20T04:53:55;5.40;;;3.83;;
1509;SDS011;746;48.688;9.428;2022-11-20T04:56:17;4.07;;;3.60;;
1509;SDS011;746;48.688;9.428;2022-11-20T04:58:38;4.33;;;4.03;;
1509;SDS011;746;48.688;9.428;2022-11-20T05:01:00;4.40;;;4.00;;
1509;SDS011;746;48.688;9.428;2022-11-20T05:03:21;3.80;;;3.53;;
1509;SDS011;746;48.688;9.428;2022-11-20T05:05:43;3.73;;;3.43;;
1509;SDS011;746;48.688;9.428;2022-11-20T05:08:04;3.53;;;3.30;;
1509;SDS011;746;48.688;9.428;2022-11-20T05:10:27;3.00;;;2.80;;
1509;SDS011;746;48.688;9.428;2022-11-20T05:12:48;3.43;;;3.13;;
1509;SDS011;746;48.688;9.428;2022-11-20T05:15:09;3.33;;;3.03;;
1509;SDS011;746;48.688;9.428;2022-11-20T05:17:30;3.03;;;2.83;;
1509;SDS011;746;48.688;9.428;2022-11-20T05:19:52;3.27;;;3.00;;
1509;SDS011;746;48.688;9.428;2022-11-20T05:22:13;3.40;;;3.20;;
1509;SDS011;746;48.688;9.428;2022-11-20T05:24:34;3.30;;;3.10;;
1509;SDS011;746;48.688;9.428;2022-11-20T05:26:57;3.23;;;3.03;;
1509;SDS011;746;48.688;9.428;2022-11-20T05:29:18;3.53;;;2.83;;
1509;SDS011;746;48.688;9.428;2022-11-20T05:31:40;2.80;;;2.60;;
1509;SDS011;746;48.688;9.428;2022-11-20T05:34:01;2.90;;;2.70;;
1509;SDS011;746;48.688;9.428;2022-11-20T05:36:22;2.90;;;2.70;;
1509;SDS011;746;48.688;9.428;2022-11-20T05:38:44;3.13;;;2.83;;
1509;SDS011;746;48.688;9.428;2022-11-20T05:41:10;2.93;;;2.73;;
1509;SDS011;746;48.688;9.428;2022-11-20T05:43:33;3.20;;;2.60;;
1509;SDS011;746;48.688;9.428;2022-11-20T05:45:55;2.83;;;2.63;;
1509;SDS011;746;48.688;9.428;2022-11-20T05:48:16;3.00;;;2.80;;
1509;SDS011;746;48.688;9.428;2022-11-20T05:50:37;3.10;;;2.90;;
1509;SDS011;746;48.688;9.428;2022-11-20T05:52:59;2.90;;;2.80;;
1509;SDS011;746;48.688;9.428;2022-11-20T05:55:20;2.80;;;2.60;;
1509;SDS011;746;48.688;9.428;2022-11-20T05:57:41;2.80;;;2.63;;
1509;SDS011;746;48.688;9.428;2022-11-20T06:00:04;3.20;;;3.00;;
1509;SDS011;746;48.688;9.428;2022-11-20T06:02:26;3.17;;;2.97;;
1509;SDS011;746;48.688;9.428;2022-11-20T06:04:47;2.70;;;2.50;;
1509;SDS011;746;48.688;9.428;2022-11-20T06:07:08;2.90;;;2.70;;
1509;SDS011;746;48.688;9.428;2022-11-20T06:09:30;2.87;;;2.70;;
1509;SDS011;746;48.688;9.428;2022-11-20T06:11:51;2.90;;;2.70;;
1509;SDS011;746;48.688;9.428;2022-11-20T06:14:12;4.07;;;3.27;;
1509;SDS011;746;48.688;9.428;2022-11-20T06:16:35;3.37;;;3.07;;
1509;SDS011;746;48.688;9.428;2022-11-20T06:18:56;2.70;;;2.53;;
1509;SDS011;746;48.688;9.428;2022-11-20T06:21:18;3.23;;;3.00;;
1509;SDS011;746;48.688;9.428;2022-11-20T06:23:40;2.73;;;2.53;;
1509;SDS011;746;48.688;9.428;2022-11-20T06:26:02;2.80;;;2.70;;
1509;SDS011;746;48.688;9.428;2022-11-20T06:28:23;3.03;;;2.70;;
1509;SDS011;746;48.688;9.428;2022-11-20T06:30:45;2.67;;;2.47;;
1509;SDS011;746;48.688;9.428;2022-11-20T06:33:07;2.77;;;2.50;;
1509;SDS011;746;48.688;9.428;2022-11-20T06:35:29;3.47;;;2.50;;
1509;SDS011;746;48.688;9.428;2022-11-20T06:37:50;2.43;;;2.33;;
1509;SDS011;746;48.688;9.428;2022-11-20T06:40:12;2.80;;;2.50;;
1509;SDS011;746;48.688;9.428;2022-11-20T06:42:33;2.60;;;2.50;;
1509;SDS011;746;48.688;9.428;2022-11-20T06:44:54;3.13;;;2.93;;
1509;SDS011;746;48.688;9.428;2022-11-20T06:47:15;3.00;;;2.80;;
1509;SDS011;746;48.688;9.428;2022-11-20T06:49:38;2.67;;;2.20;;
1509;SDS011;746;48.688;9.428;2022-11-20T06:51:59;2.93;;;2.73;;
1509;SDS011;746;48.688;9.428;2022-11-20T06:54:20;2.80;;;2.70;;
1509;SDS011;746;48.688;9.428;2022-11-20T06:56:42;3.20;;;2.90;;
1509;SDS011;746;48.688;9.428;2022-11-20T06:59:04;3.13;;;2.30;;
1509;SDS011;746;48.688;9.428;2022-11-20T07:01:25;59.17;;;22.53;;
1509;SDS011;746;48.688;9.428;2022-11-20T07:03:48;3.93;;;3.60;;
1509;SDS011;746;48.688;9.428;2022-11-20T07:06:15;3.10;;;2.90;;
1509;SDS011;746;48.688;9.428;2022-11-20T07:08:36;2.90;;;2.70;;
1509;SDS011;746;48.688;9.428;2022-11-20T07:10:58;2.67;;;2.47;;
1509;SDS011;746;48.688;9.428;2022-11-20T07:13:19;3.83;;;2.80;;
1509;SDS011;746;48.688;9.428;2022-11-20T07:15:41;2.97;;;2.70;;
1509;SDS011;746;48.688;9.428;2022-11-20T07:18:02;2.80;;;2.60;;
1509;SDS011;746;48.688;9.428;2022-11-20T07:20:23;3.07;;;2.87;;
1509;SDS011;746;48.688;9.428;2022-11-20T07:22:46;3.10;;;2.90;;
1509;SDS011;746;48.688;9.428;2022-11-20T07:25:07;3.13;;;2.93;;
1509;SDS011;746;48.688;9.428;2022-11-20T07:27:29;2.93;;;2.67;;
1509;SDS011;746;48.688;9.428;2022-11-20T07:29:50;3.33;;;3.03;;
1509;SDS011;746;48.688;9.428;2022-11-20T07:32:11;3.30;;;3.00;;
1509;SDS011;746;48.688;9.428;2022-11-20T07:34:32;3.00;;;2.80;;
1509;SDS011;746;48.688;9.428;2022-11-20T07:36:54;4.27;;;3.87;;
1509;SDS011;746;48.688;9.428;2022-11-20T07:39:16;2.87;;;2.63;;
1509;SDS011;746;48.688;9.428;2022-11-20T07:41:38;3.50;;;3.30;;
1509;SDS011;746;48.688;9.428;2022-11-20T07:43:59;3.47;;;3.27;;
1509;SDS011;746;48.688;9.428;2022-11-20T07:46:20;2.70;;;2.50;;
1509;SDS011;746;48.688;9.428;2022-11-20T07:48:42;3.10;;;2.67;;
1509;SDS011;746;48.688;9.428;2022-11-20T07:51:03;2.97;;;2.73;;
1509;SDS011;746;48.688;9.428;2022-11-20T07:53:24;3.07;;;2.80;;
1509;SDS011;746;48.688;9.428;2022-11-20T07:55:47;2.67;;;2.50;;
1509;SDS011;746;48.688;9.428;2022-11-20T07:58:08;2.60;;;2.50;;
1509;SDS011;746;48.688;9.428;2022-11-20T08:00:29;2.50;;;2.40;;
1509;SDS011;746;48.688;9.428;2022-11-20T08:02:50;2.40;;;2.30;;
1509;SDS011;746;48.688;9.428;2022-11-20T08:05:12;2.87;;;2.67;;
1509;SDS011;746;48.688;9.428;2022-11-20T08:07:36;2.40;;;2.30;;
1509;SDS011;746;48.688;9.428;2022-11-20T08:09:58;2.60;;;2.40;;
1509;SDS011;746;48.688;9.428;2022-11-20T08:12:21;4.37;;;2.77;;
1509;SDS011;746;48.688;9.428;2022-11-20T08:15:08;2.87;;;2.60;;
1509;SDS011;746;48.688;9.428;2022-11-20T08:17:32;2.80;;;2.53;;
1509;SDS011;746;48.688;9.428;2022-11-20T08:19:53;2.97;;;2.77;;
1509;SDS011;746;48.688;9.428;2022-11-20T08:22:14;2.43;;;2.33;;
1509;SDS011;746;48.688;9.428;2022-11-20T08:24:37;2.63;;;2.43;;
1509;SDS011;746;48.688;9.428;2022-11-20T08:26:59;2.60;;;2.40;;
1509;SDS011;746;48.688;9.428;2022-11-20T08:29:21;2.57;;;2.40;;
1509;SDS011;746;48.688;9.428;2022-11-20T08:31:43;2.30;;;2.20;;
1509;SDS011;746;48.688;9.428;2022-11-20T08:34:04;2.80;;;2.60;;
1509;SDS011;746;48.688;9.428;2022-11-20T08:36:29;3.53;;;2.90;;
1509;SDS011;746;48.688;9.428;2022-11-20T08:38:54;2.70;;;2.60;;
1509;SDS011;746;48.688;9.428;2022-11-20T08:41:16;3.00;;;2.80;;
1509;SDS011;746;48.688;9.428;2022-11-20T08:43:46;5.43;;;4.87;;
1509;SDS011;746;48.688;9.428;2022-11-20T08:46:09;4.13;;;3.83;;
1509;SDS011;746;48.688;9.428;2022-11-20T08:48:30;3.13;;;2.93;;
1509;SDS011;746;48.688;9.428;2022-11-20T08:50:51;2.67;;;2.40;;
1509;SDS011;746;48.688;9.428;2022-11-20T08:53:12;2.50;;;2.40;;
1509;SDS011;746;48.688;9.428;2022-11-20T08:55:33;2.57;;;2.47;;
1509;SDS011;746;48.688;9.428;2022-11-20T08:57:56;2.67;;;2.57;;
1509;SDS011;746;48.688;9.428;2022-11-20T09:00:18;2.60;;;2.40;;
1509;SDS011;746;48.688;9.428;2022-11-20T09:02:40;2.57;;;2.47;;
1509;SDS011;746;48.688;9.428;2022-11-20T09:05:02;2.80;;;2.60;;
1509;SDS011;746;48.688;9.428;2022-11-20T09:07:23;2.93;;;2.73;;
1509;SDS011;746;48.688;9.428;2022-11-20T09:09:44;3.10;;;2.90;;
1509;SDS011;746;48.688;9.428;2022-11-20T09:12:25;3.00;;;2.73;;
1509;SDS011;746;48.688;9.428;2022-11-20T09:14:46;3.27;;;2.50;;
1509;SDS011;746;48.688;9.428;2022-11-20T09:17:13;2.27;;;2.17;;
1509;SDS011;746;48.688;9.428;2022-11-20T09:19:36;2.67;;;2.40;;
1509;SDS011;746;48.688;9.428;2022-11-20T09:21:57;2.60;;;2.50;;
1509;SDS011;746;48.688;9.428;2022-11-20T09:24:19;2.47;;;2.27;;
1509;SDS011;746;48.688;9.428;2022-11-20T09:26:41;2.90;;;2.70;;
1509;SDS011;746;48.688;9.428;2022-11-20T09:29:02;2.40;;;2.20;;
1509;SDS011;746;48.688;9.428;2022-11-20T09:31:24;2.20;;;2.10;;
1509;SDS011;746;48.688;9.428;2022-11-20T09:33:46;3.30;;;3.00;;
1509;SDS011;746;48.688;9.428;2022-11-20T09:36:08;4.00;;;2.93;;
1509;SDS011;746;48.688;9.428;2022-11-20T09:38:30;2.77;;;2.57;;
1509;SDS011;746;48.688;9.428;2022-11-20T09:40:52;2.60;;;2.40;;
1509;SDS011;746;48.688;9.428;2022-11-20T09:43:17;3.40;;;3.10;;
1509;SDS011;746;48.688;9.428;2022-11-20T09:45:44;5.60;;;4.13;;
1509;SDS011;746;48.688;9.428;2022-11-20T09:48:14;3.67;;;3.33;;
1509;SDS011;746;48.688;9.428;2022-11-20T09:50:38;5.03;;;4.30;;
1509;SDS011;746;48.688;9.428;2022-11-20T09:53:08;5.23;;;4.27;;
1509;SDS011;746;48.688;9.428;2022-11-20T09:55:32;6.43;;;5.53;;
1509;SDS011;746;48.688;9.428;2022-11-20T09:57:55;8.43;;;6.73;;
1509;SDS011;746;48.688;9.428;2022-11-20T10:00:18;5.33;;;4.83;;
1509;SDS011;746;48.688;9.428;2022-11-20T10:02:42;5.10;;;4.60;;
1509;SDS011;746;48.688;9.428;2022-11-20T10:05:04;3.57;;;3.27;;
1509;SDS011;746;48.688;9.428;2022-11-20T10:07:28;3.60;;;3.33;;
1509;SDS011;746;48.688;9.428;2022-11-20T10:09:54;3.40;;;3.13;;
1509;SDS011;746;48.688;9.428;2022-11-20T10:12:18;4.07;;;3.47;;
1509;SDS011;746;48.688;9.428;2022-11-20T10:14:45;2.80;;;2.60;;
1509;SDS011;746;48.688;9.428;2022-11-20T10:17:15;3.43;;;3.23;;
1509;SDS011;746;48.688;9.428;2022-11-20T10:19:44;3.37;;;3.07;;
1509;SDS011;746;48.688;9.428;2022-11-20T10:22:10;3.13;;;2.93;;
1509;SDS011;746;48.688;9.428;2022-11-20T10:24:44;3.07;;;2.80;;
1509;SDS011;746;48.688;9.428;2022-11-20T10:27:12;2.07;;;1.97;;
1509;SDS011;746;48.688;9.428;2022-11-20T10:29:36;2.23;;;2.10;;
1509;SDS011;746;48.688;9.428;2022-11-20T10:32:00;2.57;;;2.47;;
1509;SDS011;746;48.688;9.428;2022-11-20T10:34:23;2.20;;;2.00;;
1509;SDS011;746;48.688;9.428;2022-11-20T10:36:47;3.67;;;3.40;;
1509;SDS011;746;48.688;9.428;2022-11-20T10:39:14;2.70;;;2.50;;
1509;SDS011;746;48.688;9.428;2022-11-20T10:41:38;2.70;;;2.50;;
1509;SDS011;746;48.688;9.428;2022-11-20T10:44:03;2.80;;;2.60;;
1509;SDS011;746;48.688;9.428;2022-11-20T10:46:25;2.63;;;2.50;;
1509;SDS011;746;48.688;9.428;2022-11-20T10:48:46;2.70;;;2.50;;
1509;SDS011;746;48.688;9.428;2022-11-20T10:51:11;2.30;;;2.20;;
1509;SDS011;746;48.688;9.428;2022-11-20T10:53:40;3.47;;;3.17;;
1509;SDS011;746;48.688;9.428;2022-11-20T10:56:05;2.63;;;2.40;;
1509;SDS011;746;48.688;9.428;2022-11-20T10:58:28;3.40;;;3.10;;
1509;SDS011;746;48.688;9.428;2022-11-20T11:01:04;3.73;;;3.43;;
1509;SDS011;746;48.688;9.428;2022-11-20T11:03:26;3.40;;;3.20;;
1509;SDS011;746;48.688;9.428;2022-11-20T11:05:49;4.00;;;3.80;;
1509;SDS011;746;48.688;9.428;2022-11-20T11:08:12;3.97;;;3.67;;
1509;SDS011;746;48.688;9.428;2022-11-20T11:10:35;2.67;;;2.47;;
1509;SDS011;746;48.688;9.428;2022-11-20T11:12:57;2.60;;;2.50;;
1509;SDS011;746;48.688;9.428;2022-11-20T11:15:25;3.33;;;2.20;;
1509;SDS011;746;48.688;9.428;2022-11-20T11:17:48;2.97;;;2.77;;
1509;SDS011;746;48.688;9.428;2022-11-20T11:20:14;4.80;;;4.40;;
1509;SDS011;746;48.688;9.428;2022-11-20T11:22:42;4.50;;;4.10;;
1509;SDS011;746;48.688;9.428;2022-11-20T11:25:07;4.33;;;4.00;;
1509;SDS011;746;48.688;9.428;2022-11-20T11:27:30;5.93;;;5.43;;
1509;SDS011;746;48.688;9.428;2022-11-20T11:30:01;7.87;;;7.17;;
1509;SDS011;746;48.688;9.428;2022-11-20T11:32:22;3.20;;;2.90;;
1509;SDS011;746;48.688;9.428;2022-11-20T11:34:45;4.23;;;3.70;;
1509;SDS011;746;48.688;9.428;2022-11-20T11:37:20;3.50;;;3.30;;
1509;SDS011;746;48.688;9.428;2022-11-20T11:39:41;3.40;;;3.17;;
1509;SDS011;746;48.688;9.428;2022-11-20T11:42:03;4.47;;;3.63;;
1509;SDS011;746;48.688;9.428;2022-11-20T11:44:25;3.53;;;3.23;;
1509;SDS011;746;48.688;9.428;2022-11-20T11:47:08;3.03;;;2.77;;
1509;SDS011;746;48.688;9.428;2022-11-20T11:49:31;3.00;;;2.70;;
1509;SDS011;746;48.688;9.428;2022-11-20T11:54:37;2.80;;;2.60;;
1509;SDS011;746;48.688;9.428;2022-11-20T11:57:00;2.50;;;2.40;;
1509;SDS011;746;48.688;9.428;2022-11-20T11:59:23;2.80;;;2.60;;
1509;SDS011;746;48.688;9.428;2022-11-20T12:01:47;2.87;;;2.67;;
1509;SDS011;746;48.688;9.428;2022-11-20T12:04:13;3.70;;;3.30;;
1509;SDS011;746;48.688;9.428;2022-11-20T12:06:38;2.80;;;2.60;;
1509;SDS011;746;48.688;9.428;2022-11-20T12:09:02;2.87;;;2.60;;
1509;SDS011;746;48.688;9.428;2022-11-20T12:11:30;3.60;;;3.40;;
1509;SDS011;746;48.688;9.428;2022-11-20T12:13:55;3.30;;;2.80;;
1509;SDS011;746;48.688;9.428;2022-11-20T12:16:17;4.00;;;3.70;;
1509;SDS011;746;48.688;9.428;2022-11-20T12:18:39;2.60;;;2.50;;
1509;SDS011;746;48.688;9.428;2022-11-20T12:21:04;4.10;;;3.77;;
1509;SDS011;746;48.688;9.428;2022-11-20T12:23:31;1.97;;;1.87;;
1509;SDS011;746;48.688;9.428;2022-11-20T12:25:56;2.10;;;1.90;;
1509;SDS011;746;48.688;9.428;2022-11-20T12:31:11;2.13;;;2.03;;
1509;SDS011;746;48.688;9.428;2022-11-20T12:33:39;2.70;;;1.90;;
1509;SDS011;746;48.688;9.428;2022-11-20T12:36:07;1.77;;;1.67;;
1509;SDS011;746;48.688;9.428;2022-11-20T12:38:40;4.07;;;1.87;;
1509;SDS011;746;48.688;9.428;2022-11-20T12:41:04;2.00;;;1.90;;
1509;SDS011;746;48.688;9.428;2022-11-20T12:43:27;2.30;;;2.10;;
1509;SDS011;746;48.688;9.428;2022-11-20T12:46:08;3.40;;;3.10;;
1509;SDS011;746;48.688;9.428;2022-11-20T12:48:38;3.10;;;2.80;;
1509;SDS011;746;48.688;9.428;2022-11-20T12:51:09;2.90;;;2.70;;
1509;SDS011;746;48.688;9.428;2022-11-20T12:53:37;3.40;;;3.10;;
1509;SDS011;746;48.688;9.428;2022-11-20T12:56:04;2.70;;;2.50;;
1509;SDS011;746;48.688;9.428;2022-11-20T12:58:32;3.00;;;2.70;;
1509;SDS011;746;48.688;9.428;2022-11-20T13:00:57;3.63;;;2.40;;
1509;SDS011;746;48.688;9.428;2022-11-20T13:06:01;2.63;;;2.27;;
1509;SDS011;746;48.688;9.428;2022-11-20T13:08:25;3.43;;;2.57;;
1509;SDS011;746;48.688;9.428;2022-11-20T13:10:49;4.43;;;3.13;;
1509;SDS011;746;48.688;9.428;2022-11-20T13:13:12;2.37;;;2.17;;
1509;SDS011;746;48.688;9.428;2022-11-20T13:15:38;3.03;;;2.83;;
1509;SDS011;746;48.688;9.428;2022-11-20T13:18:01;2.70;;;2.00;;
1509;SDS011;746;48.688;9.428;2022-11-20T13:20:23;2.10;;;2.00;;
1509;SDS011;746;48.688;9.428;2022-11-20T13:22:46;2.50;;;2.30;;
1509;SDS011;746;48.688;9.428;2022-11-20T13:25:08;2.40;;;1.67;;
1509;SDS011;746;48.688;9.428;2022-11-20T13:27:35;2.30;;;2.00;;
1509;SDS011;746;48.688;9.428;2022-11-20T13:30:00;2.33;;;2.00;;
1509;SDS011;746;48.688;9.428;2022-11-20T13:32:22;2.93;;;2.70;;
1509;SDS011;746;48.688;9.428;2022-11-20T13:37:30;1.50;;;1.40;;
1509;SDS011;746;48.688;9.428;2022-11-20T13:40:04;4.13;;;2.10;;
1509;SDS011;746;48.688;9.428;2022-11-20T13:42:27;1.97;;;1.70;;
1509;SDS011;746;48.688;9.428;2022-11-20T13:44:50;3.77;;;2.93;;
1509;SDS011;746;48.688;9.428;2022-11-20T13:49:40;2.17;;;2.07;;
1509;SDS011;746;48.688;9.428;2022-11-20T13:52:08;2.73;;;2.53;;
1509;SDS011;746;48.688;9.428;2022-11-20T14:00:08;2.60;;;2.40;;
1509;SDS011;746;48.688;9.428;2022-11-20T14:02:31;1.93;;;1.83;;
1509;SDS011;746;48.688;9.428;2022-11-20T14:04:53;1.77;;;1.67;;
1509;SDS011;746;48.688;9.428;2022-11-20T14:07:14;2.30;;;2.10;;
1509;SDS011;746;48.688;9.428;2022-11-20T14:09:36;2.40;;;2.20;;
1509;SDS011;746;48.688;9.428;2022-11-20T14:11:58;2.70;;;2.50;;
1509;SDS011;746;48.688;9.428;2022-11-20T14:14:20;2.67;;;2.30;;
1509;SDS011;746;48.688;9.428;2022-11-20T14:16:43;2.63;;;2.30;;
1509;SDS011;746;48.688;9.428;2022-11-20T14:19:25;3.63;;;2.30;;
1509;SDS011;746;48.688;9.428;2022-11-20T14:21:47;2.43;;;2.10;;
1509;SDS011;746;48.688;9.428;2022-11-20T14:24:09;2.47;;;2.07;;
1509;SDS011;746;48.688;9.428;2022-11-20T14:26:31;3.30;;;2.10;;
1509;SDS011;746;48.688;9.428;2022-11-20T14:28:53;2.53;;;2.03;;
1509;SDS011;746;48.688;9.428;2022-11-20T14:31:16;2.60;;;2.40;;
1509;SDS011;746;48.688;9.428;2022-11-20T14:33:41;2.27;;;2.00;;
1509;SDS011;746;48.688;9.428;2022-11-20T14:36:02;2.80;;;1.93;;
1509;SDS011;746;48.688;9.428;2022-11-20T14:38:24;2.10;;;1.90;;
1509;SDS011;746;48.688;9.428;2022-11-20T14:40:45;2.23;;;1.70;;
1509;SDS011;746;48.688;9.428;2022-11-20T14:43:15;2.47;;;2.27;;
1509;SDS011;746;48.688;9.428;2022-11-20T14:45:37;2.40;;;2.20;;
1509;SDS011;746;48.688;9.428;2022-11-20T14:47:59;2.43;;;2.23;;
1509;SDS011;746;48.688;9.428;2022-11-20T14:50:22;2.43;;;2.27;;
1509;SDS011;746;48.688;9.428;2022-11-20T14:52:49;2.10;;;2.00;;
1509;SDS011;746;48.688;9.428;2022-11-20T14:55:13;2.53;;;2.20;;
1509;SDS011;746;48.688;9.428;2022-11-20T14:57:35;2.77;;;2.30;;
1509;SDS011;746;48.688;9.428;2022-11-20T15:00:07;2.90;;;2.60;;
1509;SDS011;746;48.688;9.428;2022-11-20T15:02:29;2.97;;;2.73;;
1509;SDS011;746;48.688;9.428;2022-11-20T15:04:56;2.87;;;2.63;;
1509;SDS011;746;48.688;9.428;2022-11-20T15:07:27;2.53;;;2.33;;
1509;SDS011;746;48.688;9.428;2022-11-20T15:09:58;2.93;;;2.20;;
1509;SDS011;746;48.688;9.428;2022-11-20T15:12:19;2.97;;;2.40;;
1509;SDS011;746;48.688;9.428;2022-11-20T15:14:40;2.60;;;2.40;;
1509;SDS011;746;48.688;9.428;2022-11-20T15:17:01;2.30;;;2.20;;
1509;SDS011;746;48.688;9.428;2022-11-20T15:19:23;2.47;;;2.27;;
1509;SDS011;746;48.688;9.428;2022-11-20T15:21:45;2.23;;;2.13;;
1509;SDS011;746;48.688;9.428;2022-11-20T15:24:09;2.37;;;1.97;;